createdAt,value
2022-08-29T00:03:24.483Z,15.70
2022-08-29T00:08:26.358Z,15.60
2022-08-29T00:13:28.114Z,15.50
2022-08-29T00:18:30.005Z,15.50
2022-08-29T00:23:31.750Z,15.50
2022-08-29T00:28:33.538Z,15.40
2022-08-29T00:33:35.551Z,15.30
2022-08-29T00:38:41.927Z,15.30
2022-08-29T00:43:43.730Z,15.20
2022-08-29T00:48:55.851Z,15.20
2022-08-29T00:54:12.552Z,15.20
2022-08-29T00:59:20.110Z,15.20
2022-08-29T01:04:24.193Z,15.10
2022-08-29T01:09:27.623Z,15.10
2022-08-29T01:14:29.524Z,15.00
2022-08-29T01:19:49.519Z,15.00
2022-08-29T01:24:53.360Z,15.10
2022-08-29T01:29:56.146Z,15.00
2022-08-29T01:34:58.248Z,15.10
2022-08-29T01:40:00.095Z,15.00
2022-08-29T01:45:02.746Z,14.90
2022-08-29T01:50:10.027Z,14.90
2022-08-29T01:55:11.864Z,15.00
2022-08-29T02:00:13.999Z,14.90
2022-08-29T02:05:15.829Z,14.90
2022-08-29T02:10:18.787Z,14.80
2022-08-29T02:15:21.463Z,14.80
2022-08-29T02:20:23.221Z,14.70
2022-08-29T02:25:43.670Z,14.60
2022-08-29T02:30:50.518Z,14.60
2022-08-29T02:35:59.396Z,14.60
2022-08-29T02:41:02.373Z,14.50
2022-08-29T02:46:05.082Z,14.50
2022-08-29T02:51:06.884Z,14.50
2022-08-29T02:56:09.784Z,14.50
2022-08-29T03:01:17.450Z,14.40
2022-08-29T03:06:20.819Z,14.40
2022-08-29T03:11:23.318Z,14.30
2022-08-29T03:16:26.499Z,14.30
2022-08-29T03:21:28.573Z,14.30
2022-08-29T03:26:30.432Z,14.20
2022-08-29T03:31:32.516Z,14.20
2022-08-29T03:36:34.811Z,14.10
2022-08-29T03:41:36.758Z,14.10
2022-08-29T03:46:39.499Z,14.00
2022-08-29T03:51:42.204Z,14.00
2022-08-29T03:56:44.001Z,13.90
2022-08-29T04:01:49.199Z,13.90
2022-08-29T04:06:51.116Z,13.80
2022-08-29T04:11:52.966Z,13.80
2022-08-29T04:16:54.863Z,13.80
2022-08-29T04:21:57.216Z,13.80
2022-08-29T04:26:59.487Z,13.70
2022-08-29T04:32:01.276Z,13.80
2022-08-29T04:37:04.517Z,13.70
2022-08-29T04:42:06.488Z,13.90
2022-08-29T04:47:08.364Z,14.00
2022-08-29T04:52:10.738Z,14.10
2022-08-29T04:57:12.647Z,14.20
2022-08-29T05:02:14.600Z,14.30
2022-08-29T05:07:16.733Z,14.40
2022-08-29T05:12:19.885Z,14.40
2022-08-29T05:17:23.171Z,14.40
2022-08-29T05:22:25.300Z,14.40
2022-08-29T05:27:27.216Z,14.40
2022-08-29T05:32:29.178Z,14.30
2022-08-29T05:37:31.025Z,14.50
2022-08-29T05:42:32.776Z,14.50
2022-08-29T05:47:34.639Z,14.70
2022-08-29T05:52:36.445Z,14.90
2022-08-29T05:57:38.394Z,15.00
2022-08-29T06:02:40.359Z,15.10
2022-08-29T06:07:42.307Z,15.30
2022-08-29T06:12:44.064Z,15.40
2022-08-29T06:17:45.857Z,15.60
2022-08-29T06:22:47.720Z,15.60
2022-08-29T06:27:53.810Z,15.80
2022-08-29T06:32:55.622Z,16.00
2022-08-29T06:37:57.448Z,16.00
2022-08-29T06:42:59.700Z,16.00
2022-08-29T06:48:01.477Z,16.10
2022-08-29T06:53:26.549Z,16.10
2022-08-29T06:58:25.889Z,16.30
2022-08-29T07:03:27.658Z,16.30
2022-08-29T07:08:29.543Z,16.50
2022-08-29T07:13:31.603Z,16.70
2022-08-29T07:18:33.429Z,16.70
2022-08-29T07:23:36.454Z,16.80
2022-08-29T07:28:39.998Z,16.80
2022-08-29T07:33:43.730Z,17.00
2022-08-29T07:38:45.685Z,17.30
2022-08-29T07:43:47.584Z,17.20
2022-08-29T07:48:49.484Z,17.10
2022-08-29T07:53:51.974Z,17.10
2022-08-29T07:58:54.715Z,17.10
2022-08-29T08:03:57.342Z,17.20
2022-08-29T08:08:59.493Z,17.30
2022-08-29T08:14:01.607Z,17.40
2022-08-29T08:19:03.894Z,17.60
2022-08-29T08:24:05.873Z,17.70
2022-08-29T08:29:07.917Z,18.00
2022-08-29T08:34:09.733Z,17.90
2022-08-29T08:39:14.458Z,18.10
2022-08-29T08:44:22.340Z,17.90
2022-08-29T08:49:45.657Z,17.80
2022-08-29T08:55:01.772Z,17.90
2022-08-29T09:00:06.418Z,18.30
2022-08-29T09:05:29.781Z,18.50
2022-08-29T09:10:46.427Z,18.60
2022-08-29T09:15:52.349Z,18.80
2022-08-29T09:20:54.618Z,19.10
2022-08-29T09:25:56.518Z,19.30
2022-08-29T09:31:19.706Z,19.20
2022-08-29T09:36:43.457Z,19.40
2022-08-29T09:42:17.388Z,19.50
2022-08-29T09:47:22.251Z,19.70
2022-08-29T09:52:25.926Z,19.70
2022-08-29T09:57:29.442Z,19.60
2022-08-29T10:02:43.674Z,19.60
2022-08-29T10:07:49.270Z,19.60
2022-08-29T10:13:02.838Z,19.80
2022-08-29T10:18:28.895Z,20.00
2022-08-29T10:24:09.000Z,19.90
2022-08-29T10:29:36.263Z,20.10
2022-08-29T10:34:55.868Z,20.20
2022-08-29T10:40:08.217Z,20.00
2022-08-29T10:45:37.022Z,20.20
2022-08-29T10:50:58.541Z,20.40
2022-08-29T10:56:27.520Z,20.40
2022-08-29T11:01:49.413Z,20.60
2022-08-29T11:06:57.326Z,20.70
2022-08-29T11:12:19.681Z,20.90
2022-08-29T11:17:25.063Z,20.80
2022-08-29T11:22:36.040Z,20.80
2022-08-29T11:28:04.104Z,20.90
2022-08-29T11:33:22.000Z,20.70
2022-08-29T11:38:59.403Z,20.80
2022-08-29T11:44:27.251Z,20.90
2022-08-29T11:49:37.680Z,21.50
2022-08-29T11:54:39.936Z,22.00
2022-08-29T11:59:56.778Z,21.80
2022-08-29T12:05:28.760Z,21.90
2022-08-29T12:10:34.331Z,22.20
2022-08-29T12:15:36.066Z,22.50
2022-08-29T12:20:51.462Z,22.20
2022-08-29T12:31:24.818Z,22.70
2022-08-29T12:36:59.465Z,22.50
2022-08-29T12:42:24.317Z,22.40
2022-08-29T12:47:32.815Z,22.30
2022-08-29T12:52:36.933Z,22.30
2022-08-29T12:57:43.926Z,22.60
2022-08-29T13:03:02.421Z,23.20
2022-08-29T13:08:11.072Z,23.80
2022-08-29T13:13:18.273Z,23.90
2022-08-29T13:18:21.414Z,23.90
2022-08-29T13:23:29.899Z,23.60
2022-08-29T13:28:56.043Z,23.80
2022-08-29T13:33:57.870Z,24.10
2022-08-29T13:39:18.081Z,23.90
2022-08-29T13:44:21.548Z,24.20
2022-08-29T13:49:26.324Z,24.40
2022-08-29T13:54:33.703Z,25.00
2022-08-29T13:59:36.767Z,25.10
2022-08-29T14:04:40.774Z,24.80
2022-08-29T14:09:45.673Z,24.60
2022-08-29T14:14:47.662Z,24.80
2022-08-29T14:19:49.687Z,24.90
2022-08-29T14:24:53.022Z,24.60
2022-08-29T14:29:54.903Z,25.20
2022-08-29T14:34:56.862Z,26.30
2022-08-29T14:39:59.083Z,25.30
2022-08-29T14:45:01.036Z,25.70
2022-08-29T14:50:03.384Z,26.20
2022-08-29T14:55:05.692Z,26.90
2022-08-29T15:00:12.824Z,26.30
2022-08-29T15:05:15.015Z,25.60
2022-08-29T15:10:19.557Z,25.00
2022-08-29T15:15:29.160Z,25.30
2022-08-29T15:20:37.816Z,24.80
2022-08-29T15:25:45.039Z,24.50
2022-08-29T15:30:56.370Z,24.40
2022-08-29T15:35:58.139Z,23.60
2022-08-29T15:41:00.090Z,23.70
2022-08-29T15:46:02.005Z,23.40
2022-08-29T15:51:04.564Z,23.40
2022-08-29T15:56:06.929Z,23.40
2022-08-29T16:01:08.807Z,23.20
2022-08-29T16:06:10.877Z,22.90
2022-08-29T16:11:12.678Z,23.10
2022-08-29T16:16:17.380Z,23.10
2022-08-29T16:21:20.537Z,22.80
2022-08-29T16:26:22.482Z,22.50
2022-08-29T16:31:25.053Z,22.30
2022-08-29T16:36:27.418Z,22.40
2022-08-29T16:41:29.282Z,22.20
2022-08-29T16:46:31.466Z,22.20
2022-08-29T16:51:33.646Z,22.10
2022-08-29T16:56:35.487Z,21.90
2022-08-29T17:01:41.152Z,21.80
2022-08-29T17:06:43.437Z,21.70
2022-08-29T17:11:46.213Z,21.70
2022-08-29T17:16:49.678Z,21.80
2022-08-29T17:21:51.667Z,21.80
2022-08-29T17:26:53.510Z,21.60
2022-08-29T17:31:55.290Z,21.40
2022-08-29T17:36:57.103Z,21.20
2022-08-29T17:41:59.028Z,21.10
2022-08-29T17:47:00.857Z,21.00
2022-08-29T17:52:02.994Z,20.90
2022-08-29T17:57:05.008Z,20.90
2022-08-29T18:02:07.040Z,20.80
2022-08-29T18:07:08.892Z,20.70
2022-08-29T18:12:10.677Z,20.50
2022-08-29T18:17:12.749Z,20.40
2022-08-29T18:22:14.539Z,20.30
2022-08-29T18:27:16.972Z,20.20
2022-08-29T18:32:22.386Z,20.00
2022-08-29T18:37:24.259Z,19.90
2022-08-29T18:42:39.949Z,19.70
2022-08-29T18:47:42.492Z,19.60
2022-08-29T18:52:45.590Z,19.50
2022-08-29T18:57:48.382Z,19.30
2022-08-29T19:02:50.653Z,19.40
2022-08-29T19:07:52.904Z,19.30
2022-08-29T19:12:56.371Z,19.30
2022-08-29T19:17:58.219Z,19.30
2022-08-29T19:23:00.485Z,19.20
2022-08-29T19:28:02.979Z,19.00
2022-08-29T19:33:09.562Z,18.80
2022-08-29T19:38:12.547Z,18.70
2022-08-29T19:43:15.264Z,18.80
2022-08-29T19:48:17.923Z,18.60
2022-08-29T19:53:25.929Z,18.70
2022-08-29T19:58:31.442Z,18.70
2022-08-29T20:03:36.814Z,18.60
2022-08-29T20:08:45.547Z,18.60
2022-08-29T20:13:51.791Z,18.50
2022-08-29T20:18:54.751Z,18.30
2022-08-29T20:23:58.342Z,18.30
2022-08-29T20:29:02.041Z,18.10
2022-08-29T20:34:04.600Z,18.00
2022-08-29T20:39:08.608Z,17.90
2022-08-29T20:44:17.790Z,17.80
2022-08-29T20:49:22.626Z,17.70
2022-08-29T20:54:25.225Z,17.60
2022-08-29T20:59:28.803Z,17.50
2022-08-29T21:04:52.289Z,17.50
2022-08-29T21:09:55.117Z,17.40
2022-08-29T21:14:56.950Z,17.30
2022-08-29T21:19:58.732Z,17.30
2022-08-29T21:25:00.629Z,17.30
2022-08-29T21:30:02.582Z,17.20
2022-08-29T21:35:05.594Z,17.10
2022-08-29T21:40:08.664Z,17.00
2022-08-29T21:45:11.241Z,17.00
2022-08-29T21:50:13.113Z,17.00
2022-08-29T21:55:17.996Z,16.90
2022-08-29T22:00:24.831Z,16.80
2022-08-29T22:05:26.886Z,16.80
2022-08-29T22:10:36.336Z,16.70
2022-08-29T22:15:57.051Z,16.60
2022-08-29T22:21:00.400Z,16.50
2022-08-29T22:26:02.214Z,16.50
2022-08-29T22:31:04.391Z,16.50
2022-08-29T22:36:08.794Z,16.50
2022-08-29T22:41:12.276Z,16.50
2022-08-29T22:46:19.338Z,16.40
2022-08-29T22:51:27.580Z,16.40
2022-08-29T22:56:31.480Z,16.30
2022-08-29T23:01:36.394Z,16.30
2022-08-29T23:06:38.497Z,16.30
2022-08-29T23:11:40.721Z,16.40
2022-08-29T23:16:42.569Z,16.40
2022-08-29T23:21:45.382Z,16.40
2022-08-29T23:26:48.732Z,16.40
2022-08-29T23:31:50.625Z,16.40
2022-08-29T23:36:52.673Z,16.40
2022-08-29T23:41:54.511Z,16.40
2022-08-29T23:46:56.721Z,16.40
2022-08-29T23:51:59.196Z,16.30
2022-08-29T23:57:01.245Z,16.30
